createdAt,value
2023-04-09T00:01:46.722Z,36.85
2023-04-09T00:06:49.914Z,36.35
2023-04-09T00:11:52.897Z,36.38
2023-04-09T00:16:57.083Z,36.35
2023-04-09T00:21:59.986Z,36.38
2023-04-09T00:27:02.883Z,36.00
2023-04-09T00:32:07.693Z,35.55
2023-04-09T00:37:10.713Z,36.67
2023-04-09T00:42:13.641Z,36.42
2023-04-09T00:47:18.048Z,37.13
2023-04-09T00:52:21.351Z,36.28
2023-04-09T00:57:24.272Z,35.90
2023-04-09T01:02:30.978Z,36.63
2023-04-09T01:07:48.817Z,34.97
2023-04-09T01:13:01.501Z,36.45
2023-04-09T01:18:08.489Z,35.92
2023-04-09T01:23:19.154Z,37.03
2023-04-09T01:28:27.814Z,35.28
2023-04-09T01:33:32.593Z,36.05
2023-04-09T01:38:37.141Z,35.90
2023-04-09T01:43:42.683Z,35.88
2023-04-09T01:48:46.355Z,36.15
2023-04-09T01:53:49.790Z,36.80
2023-04-09T01:58:54.382Z,35.47
2023-04-09T02:04:01.781Z,35.53
2023-04-09T02:09:08.432Z,36.42
2023-04-09T02:14:14.115Z,36.72
2023-04-09T02:19:16.987Z,36.40
2023-04-09T02:24:19.929Z,36.08
2023-04-09T02:29:24.911Z,36.85
2023-04-09T02:34:28.253Z,36.35
2023-04-09T02:39:31.452Z,35.47
2023-04-09T02:44:35.728Z,35.80
2023-04-09T02:49:38.637Z,35.88
2023-04-09T02:54:41.756Z,36.88
2023-04-09T02:59:46.766Z,35.97
2023-04-09T03:04:49.676Z,36.55
2023-04-09T03:09:52.557Z,35.38
2023-04-09T03:14:57.020Z,36.08
2023-04-09T03:20:00.255Z,35.45
2023-04-09T03:25:11.068Z,34.70
2023-04-09T03:30:15.512Z,35.78
2023-04-09T03:35:21.548Z,36.22
2023-04-09T03:40:24.647Z,36.38
2023-04-09T03:45:30.740Z,35.95
2023-04-09T03:50:47.225Z,36.33
2023-04-09T03:55:55.078Z,35.90
2023-04-09T04:01:03.136Z,36.67
2023-04-09T04:06:13.916Z,35.63
2023-04-09T04:11:28.125Z,36.35
2023-04-09T04:16:33.398Z,35.63
2023-04-09T04:21:38.800Z,36.63
2023-04-09T04:26:42.771Z,35.80
2023-04-09T04:31:56.355Z,35.95
2023-04-09T04:37:02.249Z,36.10
2023-04-09T04:42:08.152Z,36.80
2023-04-09T04:47:12.966Z,35.83
2023-04-09T04:52:17.778Z,36.20
2023-04-09T04:57:25.400Z,35.55
2023-04-09T05:02:30.974Z,36.13
2023-04-09T05:07:53.268Z,36.10
2023-04-09T05:12:57.041Z,36.90
2023-04-09T05:18:13.808Z,34.80
2023-04-09T05:23:16.724Z,36.22
2023-04-09T05:28:23.778Z,36.13
2023-04-09T05:33:38.603Z,36.40
2023-04-09T05:38:49.994Z,35.92
2023-04-09T05:43:53.220Z,36.80
2023-04-09T05:48:57.779Z,36.83
2023-04-09T05:54:04.079Z,36.35
2023-04-09T05:59:11.715Z,36.53
2023-04-09T06:04:17.033Z,36.83
2023-04-09T06:09:20.491Z,37.22
2023-04-09T06:14:23.350Z,37.17
2023-04-09T06:19:28.821Z,38.13
2023-04-09T06:24:33.031Z,37.33
2023-04-09T06:29:35.912Z,37.55
2023-04-09T06:34:40.197Z,37.47
2023-04-09T06:39:50.625Z,38.30
2023-04-09T06:45:01.073Z,37.17
2023-04-09T06:50:06.283Z,36.90
2023-04-09T06:55:10.590Z,38.25
2023-04-09T07:00:14.594Z,36.60
2023-04-09T07:05:19.662Z,37.30
2023-04-09T07:10:22.558Z,38.75
2023-04-09T07:15:25.521Z,38.13
2023-04-09T07:20:29.771Z,38.00
2023-04-09T07:25:32.765Z,38.25
2023-04-09T07:30:35.622Z,38.10
2023-04-09T07:35:39.892Z,39.05
2023-04-09T07:40:42.840Z,37.78
2023-04-09T07:45:45.936Z,38.10
2023-04-09T07:50:50.171Z,37.83
2023-04-09T07:55:53.128Z,38.28
2023-04-09T08:00:56.093Z,38.72
2023-04-09T08:06:00.334Z,37.92
2023-04-09T08:11:08.789Z,37.60
2023-04-09T08:16:11.662Z,38.60
2023-04-09T08:21:16.153Z,37.45
2023-04-09T08:26:19.082Z,39.10
2023-04-09T08:31:22.077Z,38.67
2023-04-09T08:36:27.699Z,37.95
2023-04-09T08:41:30.852Z,39.58
2023-04-09T08:46:36.702Z,38.40
2023-04-09T08:51:40.996Z,38.38
2023-04-09T08:56:44.127Z,37.88
2023-04-09T09:01:54.336Z,37.83
2023-04-09T09:07:07.752Z,37.22
2023-04-09T09:12:10.646Z,36.95
2023-04-09T09:17:13.625Z,37.55
2023-04-09T09:22:18.005Z,37.83
2023-04-09T09:27:40.456Z,38.22
2023-04-09T09:32:46.592Z,37.60
2023-04-09T09:38:03.064Z,36.85
2023-04-09T09:43:06.021Z,36.20
2023-04-09T09:48:11.369Z,35.55
2023-04-09T09:53:23.357Z,35.65
2023-04-09T09:58:37.704Z,35.58
2023-04-09T10:03:42.385Z,35.30
2023-04-09T10:08:49.766Z,35.95
2023-04-09T10:13:57.988Z,35.50
2023-04-09T10:19:02.008Z,35.15
2023-04-09T10:24:08.097Z,35.67
2023-04-09T10:29:14.693Z,35.53
2023-04-09T10:34:19.055Z,35.92
2023-04-09T10:39:27.070Z,36.45
2023-04-09T10:44:31.802Z,36.03
2023-04-09T10:49:38.105Z,36.50
2023-04-09T10:54:47.704Z,36.30
2023-04-09T10:59:53.191Z,35.47
2023-04-09T11:05:07.068Z,36.08
2023-04-09T11:10:11.844Z,36.25
2023-04-09T11:15:17.671Z,36.20
2023-04-09T11:20:22.695Z,36.00
2023-04-09T11:25:28.484Z,36.03
2023-04-09T11:30:34.332Z,37.10
2023-04-09T11:35:37.893Z,35.92
2023-04-09T11:40:48.097Z,36.00
2023-04-09T11:45:51.909Z,37.35
2023-04-09T11:50:55.152Z,35.75
2023-04-09T11:55:59.540Z,35.97
2023-04-09T12:01:05.700Z,36.30
2023-04-09T12:06:09.242Z,36.38
2023-04-09T12:11:16.082Z,36.15
2023-04-09T12:16:21.546Z,35.95
2023-04-09T12:21:26.061Z,36.95
2023-04-09T12:26:30.442Z,36.38
2023-04-09T12:31:33.349Z,36.83
2023-04-09T12:36:36.479Z,36.72
2023-04-09T12:41:40.829Z,36.60
2023-04-09T12:46:43.730Z,36.92
2023-04-09T12:51:46.710Z,37.03
2023-04-09T12:56:51.020Z,36.15
2023-04-09T13:01:53.903Z,37.70
2023-04-09T13:06:57.013Z,36.40
2023-04-09T13:12:01.366Z,36.20
2023-04-09T13:17:04.455Z,36.88
2023-04-09T13:22:08.789Z,36.28
2023-04-09T13:27:13.033Z,36.83
2023-04-09T13:32:18.222Z,37.17
2023-04-09T13:37:21.095Z,36.78
2023-04-09T13:42:25.758Z,36.95
2023-04-09T13:47:34.026Z,37.55
2023-04-09T13:52:37.005Z,36.60
2023-04-09T13:57:41.278Z,36.95
2023-04-09T14:02:46.924Z,36.88
2023-04-09T14:07:49.897Z,36.55
2023-04-09T14:12:54.292Z,36.53
2023-04-09T14:17:57.242Z,37.30
2023-04-09T14:23:01.313Z,37.00
2023-04-09T14:28:05.949Z,36.75
2023-04-09T14:33:08.901Z,37.28
2023-04-09T14:38:13.645Z,36.75
2023-04-09T14:43:17.905Z,36.70
2023-04-09T14:48:20.910Z,36.97
2023-04-09T14:53:23.867Z,37.28
2023-04-09T14:58:28.102Z,37.38
2023-04-09T15:03:33.317Z,37.20
2023-04-09T15:08:36.435Z,36.85
2023-04-09T15:13:41.647Z,36.38
2023-04-09T15:18:44.484Z,37.17
2023-04-09T15:23:53.789Z,36.28
2023-04-09T15:29:02.972Z,36.58
2023-04-09T15:34:06.206Z,36.72
2023-04-09T15:39:09.080Z,38.33
2023-04-09T15:44:14.451Z,36.50
2023-04-09T15:49:19.466Z,37.35
2023-04-09T15:54:22.539Z,36.90
2023-04-09T15:59:26.803Z,37.08
2023-04-09T16:04:29.728Z,37.20
2023-04-09T16:09:32.662Z,37.28
2023-04-09T16:14:39.393Z,39.17
2023-04-09T16:19:43.870Z,37.20
2023-04-09T16:24:46.946Z,36.72
2023-04-09T16:29:52.381Z,36.53
2023-04-09T16:34:56.144Z,37.45
2023-04-09T16:39:59.116Z,36.55
2023-04-09T16:45:04.458Z,36.95
2023-04-09T16:50:12.945Z,36.63
2023-04-09T16:55:16.075Z,36.63
2023-04-09T17:00:21.116Z,36.75
2023-04-09T17:05:25.160Z,36.67
2023-04-09T17:10:28.431Z,37.88
2023-04-09T17:15:32.809Z,36.92
2023-04-09T17:20:35.752Z,37.28
2023-04-09T17:25:38.718Z,37.40
2023-04-09T17:30:43.840Z,37.58
2023-04-09T17:35:46.827Z,37.05
2023-04-09T17:40:49.816Z,37.10
2023-04-09T17:45:54.067Z,37.50
2023-04-09T17:50:57.686Z,37.58
2023-04-09T17:56:03.006Z,37.08
2023-04-09T18:01:09.722Z,39.53
2023-04-09T18:06:12.762Z,38.80
2023-04-09T18:11:18.349Z,38.97
2023-04-09T18:16:23.310Z,38.38
2023-04-09T18:21:27.040Z,37.60
2023-04-09T18:26:29.980Z,37.17
2023-04-09T18:31:34.382Z,37.33
2023-04-09T18:36:37.636Z,38.35
2023-04-09T18:41:40.732Z,39.78
2023-04-09T18:46:45.481Z,38.00
2023-04-09T18:51:48.432Z,38.03
2023-04-09T18:56:51.362Z,41.20
2023-04-09T19:01:55.881Z,38.50
2023-04-09T19:06:58.864Z,37.33
2023-04-09T19:12:01.993Z,36.72
2023-04-09T19:17:06.354Z,36.47
2023-04-09T19:22:09.325Z,36.97
2023-04-09T19:27:13.210Z,36.67
2023-04-09T19:32:17.467Z,36.30
2023-04-09T19:37:20.619Z,39.00
2023-04-09T19:42:23.862Z,36.97
2023-04-09T19:47:36.508Z,37.40
2023-04-09T19:52:41.401Z,37.30
2023-04-09T19:57:46.099Z,37.13
2023-04-09T20:02:50.813Z,37.00
2023-04-09T20:07:53.777Z,36.78
2023-04-09T20:12:56.718Z,36.13
2023-04-09T20:18:01.006Z,37.15
2023-04-09T20:23:04.991Z,36.55
2023-04-09T20:28:09.919Z,36.65
2023-04-09T20:33:14.270Z,36.67
2023-04-09T20:38:20.523Z,37.63
2023-04-09T20:43:23.578Z,36.65
2023-04-09T20:48:31.374Z,37.33
2023-04-09T20:53:34.714Z,36.55
2023-04-09T20:58:37.756Z,37.03
2023-04-09T21:03:42.146Z,36.97
2023-04-09T21:08:45.343Z,36.88
2023-04-09T21:13:54.665Z,37.13
2023-04-09T21:19:00.980Z,37.55
2023-04-09T21:24:04.210Z,38.33
2023-04-09T21:29:07.099Z,36.38
2023-04-09T21:34:11.377Z,37.05
2023-04-09T21:39:14.400Z,37.08
2023-04-09T21:44:17.251Z,37.30
2023-04-09T21:49:21.917Z,36.92
2023-04-09T21:54:24.790Z,36.47
2023-04-09T21:59:28.155Z,37.33
2023-04-09T22:04:32.712Z,36.55
2023-04-09T22:09:35.820Z,36.92
2023-04-09T22:14:40.576Z,36.40
2023-04-09T22:19:46.648Z,36.88
2023-04-09T22:24:49.643Z,36.55
2023-04-09T22:29:52.508Z,36.03
2023-04-09T22:34:56.718Z,36.55
2023-04-09T22:39:59.543Z,36.00
2023-04-09T22:45:02.555Z,36.58
2023-04-09T22:50:08.318Z,36.33
2023-04-09T22:55:13.555Z,36.45
2023-04-09T23:00:16.845Z,36.65
2023-04-09T23:05:21.310Z,36.38
2023-04-09T23:10:24.366Z,36.70
2023-04-09T23:15:28.177Z,36.30
2023-04-09T23:20:32.444Z,36.30
2023-04-09T23:25:35.345Z,37.05
2023-04-09T23:30:38.425Z,36.42
2023-04-09T23:35:42.683Z,37.17
2023-04-09T23:40:47.272Z,37.17
2023-04-09T23:45:50.668Z,36.15
2023-04-09T23:50:54.925Z,36.25
2023-04-09T23:55:57.933Z,36.13
